sensor_id;sensor_type;location;lat;lon;timestamp;P1;durP1;ratioP1;P2;durP2;ratioP2
58139;SDS011;53185;47.378;18.922;2024-01-27T00:00:45;6.40;;;2.85;;
58139;SDS011;53185;47.378;18.922;2024-01-27T00:03:13;6.90;;;3.35;;
58139;SDS011;53185;47.378;18.922;2024-01-27T00:05:40;11.05;;;3.72;;
58139;SDS011;53185;47.378;18.922;2024-01-27T00:08:07;6.00;;;3.08;;
58139;SDS011;53185;47.378;18.922;2024-01-27T00:10:35;9.73;;;3.80;;
58139;SDS011;53185;47.378;18.922;2024-01-27T00:13:03;7.47;;;3.65;;
58139;SDS011;53185;47.378;18.922;2024-01-27T00:15:30;10.95;;;3.92;;
58139;SDS011;53185;47.378;18.922;2024-01-27T00:17:58;8.27;;;3.60;;
58139;SDS011;53185;47.378;18.922;2024-01-27T00:20:25;6.20;;;2.95;;
58139;SDS011;53185;47.378;18.922;2024-01-27T00:22:53;4.65;;;2.50;;
58139;SDS011;53185;47.378;18.922;2024-01-27T00:25:20;5.35;;;1.87;;
58139;SDS011;53185;47.378;18.922;2024-01-27T00:27:47;5.85;;;2.67;;
58139;SDS011;53185;47.378;18.922;2024-01-27T00:30:15;6.55;;;2.37;;
58139;SDS011;53185;47.378;18.922;2024-01-27T00:32:45;8.43;;;2.00;;
58139;SDS011;53185;47.378;18.922;2024-01-27T00:35:13;5.22;;;1.80;;
58139;SDS011;53185;47.378;18.922;2024-01-27T00:37:43;2.22;;;1.30;;
58139;SDS011;53185;47.378;18.922;2024-01-27T00:40:10;3.53;;;1.70;;
58139;SDS011;53185;47.378;18.922;2024-01-27T00:42:38;1.20;;;0.93;;
58139;SDS011;53185;47.378;18.922;2024-01-27T00:45:08;2.45;;;1.08;;
58139;SDS011;53185;47.378;18.922;2024-01-27T00:47:35;1.62;;;0.98;;
58139;SDS011;53185;47.378;18.922;2024-01-27T00:50:03;3.30;;;1.00;;
58139;SDS011;53185;47.378;18.922;2024-01-27T00:52:31;2.42;;;1.15;;
58139;SDS011;53185;47.378;18.922;2024-01-27T00:54:58;1.90;;;0.90;;
58139;SDS011;53185;47.378;18.922;2024-01-27T00:57:27;1.85;;;1.20;;
58139;SDS011;53185;47.378;18.922;2024-01-27T00:59:55;3.25;;;1.65;;
58139;SDS011;53185;47.378;18.922;2024-01-27T01:02:22;4.60;;;1.33;;
58139;SDS011;53185;47.378;18.922;2024-01-27T01:04:49;1.50;;;1.00;;
58139;SDS011;53185;47.378;18.922;2024-01-27T01:07:17;1.90;;;1.30;;
58139;SDS011;53185;47.378;18.922;2024-01-27T01:09:45;2.12;;;1.05;;
58139;SDS011;53185;47.378;18.922;2024-01-27T01:12:12;2.58;;;1.15;;
58139;SDS011;53185;47.378;18.922;2024-01-27T01:14:42;3.17;;;1.20;;
58139;SDS011;53185;47.378;18.922;2024-01-27T01:17:12;2.67;;;1.30;;
58139;SDS011;53185;47.378;18.922;2024-01-27T01:19:40;1.73;;;1.20;;
58139;SDS011;53185;47.378;18.922;2024-01-27T01:22:07;4.95;;;1.73;;
58139;SDS011;53185;47.378;18.922;2024-01-27T01:24:39;2.70;;;1.20;;
58139;SDS011;53185;47.378;18.922;2024-01-27T01:27:12;1.65;;;0.98;;
58139;SDS011;53185;47.378;18.922;2024-01-27T01:29:39;4.20;;;1.60;;
58139;SDS011;53185;47.378;18.922;2024-01-27T01:32:06;6.50;;;1.62;;
58139;SDS011;53185;47.378;18.922;2024-01-27T01:34:34;2.33;;;1.40;;
58139;SDS011;53185;47.378;18.922;2024-01-27T01:37:02;3.33;;;1.58;;
58139;SDS011;53185;47.378;18.922;2024-01-27T01:39:29;2.28;;;1.10;;
58139;SDS011;53185;47.378;18.922;2024-01-27T01:41:57;3.10;;;1.67;;
58139;SDS011;53185;47.378;18.922;2024-01-27T01:44:26;1.42;;;1.02;;
58139;SDS011;53185;47.378;18.922;2024-01-27T01:46:57;2.30;;;0.77;;
58139;SDS011;53185;47.378;18.922;2024-01-27T01:49:24;1.83;;;1.02;;
58139;SDS011;53185;47.378;18.922;2024-01-27T01:51:51;5.78;;;1.20;;
58139;SDS011;53185;47.378;18.922;2024-01-27T01:54:19;0.88;;;0.73;;
58139;SDS011;53185;47.378;18.922;2024-01-27T01:56:46;1.98;;;0.70;;
58139;SDS011;53185;47.378;18.922;2024-01-27T01:59:14;1.25;;;0.80;;
58139;SDS011;53185;47.378;18.922;2024-01-27T02:01:41;1.30;;;0.77;;
58139;SDS011;53185;47.378;18.922;2024-01-27T02:04:12;0.93;;;0.85;;
58139;SDS011;53185;47.378;18.922;2024-01-27T02:06:39;2.35;;;1.27;;
58139;SDS011;53185;47.378;18.922;2024-01-27T02:09:07;1.17;;;0.75;;
58139;SDS011;53185;47.378;18.922;2024-01-27T02:11:34;1.60;;;0.95;;
58139;SDS011;53185;47.378;18.922;2024-01-27T02:14:02;1.40;;;0.70;;
58139;SDS011;53185;47.378;18.922;2024-01-27T02:16:30;2.90;;;0.60;;
58139;SDS011;53185;47.378;18.922;2024-01-27T02:18:58;0.82;;;0.70;;
58139;SDS011;53185;47.378;18.922;2024-01-27T02:21:25;0.57;;;0.50;;
58139;SDS011;53185;47.378;18.922;2024-01-27T02:23:53;4.12;;;0.65;;
58139;SDS011;53185;47.378;18.922;2024-01-27T02:26:21;0.50;;;0.50;;
58139;SDS011;53185;47.378;18.922;2024-01-27T02:28:48;1.52;;;0.60;;
58139;SDS011;53185;47.378;18.922;2024-01-27T02:31:15;2.00;;;0.80;;
58139;SDS011;53185;47.378;18.922;2024-01-27T02:33:43;1.37;;;0.57;;
58139;SDS011;53185;47.378;18.922;2024-01-27T02:36:11;1.45;;;0.62;;
58139;SDS011;53185;47.378;18.922;2024-01-27T02:38:38;2.87;;;0.82;;
58139;SDS011;53185;47.378;18.922;2024-01-27T02:41:06;2.15;;;0.90;;
58139;SDS011;53185;47.378;18.922;2024-01-27T02:43:33;1.27;;;0.50;;
58139;SDS011;53185;47.378;18.922;2024-01-27T02:46:00;1.80;;;1.15;;
58139;SDS011;53185;47.378;18.922;2024-01-27T02:48:29;2.95;;;0.68;;
58139;SDS011;53185;47.378;18.922;2024-01-27T02:50:57;1.50;;;0.60;;
58139;SDS011;53185;47.378;18.922;2024-01-27T02:53:24;0.95;;;0.50;;
58139;SDS011;53185;47.378;18.922;2024-01-27T02:55:52;0.80;;;0.50;;
58139;SDS011;53185;47.378;18.922;2024-01-27T02:58:19;2.15;;;0.60;;
58139;SDS011;53185;47.378;18.922;2024-01-27T03:00:46;0.85;;;0.57;;
58139;SDS011;53185;47.378;18.922;2024-01-27T03:03:14;3.00;;;1.10;;
58139;SDS011;53185;47.378;18.922;2024-01-27T03:05:42;0.47;;;0.45;;
58139;SDS011;53185;47.378;18.922;2024-01-27T03:08:09;5.22;;;0.65;;
58139;SDS011;53185;47.378;18.922;2024-01-27T03:10:38;0.32;;;0.32;;
58139;SDS011;53185;47.378;18.922;2024-01-27T03:13:05;2.15;;;0.90;;
58139;SDS011;53185;47.378;18.922;2024-01-27T03:15:33;2.22;;;0.50;;
58139;SDS011;53185;47.378;18.922;2024-01-27T03:20:32;6.40;;;1.05;;
58139;SDS011;53185;47.378;18.922;2024-01-27T03:22:59;0.50;;;0.45;;
58139;SDS011;53185;47.378;18.922;2024-01-27T03:25:27;1.00;;;0.60;;
58139;SDS011;53185;47.378;18.922;2024-01-27T03:27:54;2.15;;;0.77;;
58139;SDS011;53185;47.378;18.922;2024-01-27T03:30:22;1.67;;;0.62;;
58139;SDS011;53185;47.378;18.922;2024-01-27T03:32:49;3.28;;;0.75;;
58139;SDS011;53185;47.378;18.922;2024-01-27T03:35:17;0.57;;;0.57;;
58139;SDS011;53185;47.378;18.922;2024-01-27T03:37:45;0.75;;;0.68;;
58139;SDS011;53185;47.378;18.922;2024-01-27T03:40:12;2.37;;;0.85;;
58139;SDS011;53185;47.378;18.922;2024-01-27T03:42:39;0.60;;;0.60;;
58139;SDS011;53185;47.378;18.922;2024-01-27T03:45:07;2.45;;;1.00;;
58139;SDS011;53185;47.378;18.922;2024-01-27T03:47:34;0.70;;;0.70;;
58139;SDS011;53185;47.378;18.922;2024-01-27T03:50:02;9.50;;;2.28;;
58139;SDS011;53185;47.378;18.922;2024-01-27T03:52:29;2.45;;;1.12;;
58139;SDS011;53185;47.378;18.922;2024-01-27T03:54:59;0.98;;;0.70;;
58139;SDS011;53185;47.378;18.922;2024-01-27T03:57:26;1.90;;;0.90;;
58139;SDS011;53185;47.378;18.922;2024-01-27T03:59:53;1.65;;;1.00;;
58139;SDS011;53185;47.378;18.922;2024-01-27T04:02:21;3.08;;;1.10;;
58139;SDS011;53185;47.378;18.922;2024-01-27T04:04:50;0.90;;;0.60;;
58139;SDS011;53185;47.378;18.922;2024-01-27T04:07:17;3.03;;;1.10;;
58139;SDS011;53185;47.378;18.922;2024-01-27T04:09:45;2.60;;;1.00;;
58139;SDS011;53185;47.378;18.922;2024-01-27T04:12:13;3.85;;;1.10;;
58139;SDS011;53185;47.378;18.922;2024-01-27T04:14:40;1.42;;;0.90;;
58139;SDS011;53185;47.378;18.922;2024-01-27T04:17:07;1.85;;;0.82;;
58139;SDS011;53185;47.378;18.922;2024-01-27T04:19:36;2.40;;;0.80;;
58139;SDS011;53185;47.378;18.922;2024-01-27T04:22:03;4.82;;;0.98;;
58139;SDS011;53185;47.378;18.922;2024-01-27T04:24:31;6.35;;;0.80;;
58139;SDS011;53185;47.378;18.922;2024-01-27T04:26:59;4.68;;;0.85;;
58139;SDS011;53185;47.378;18.922;2024-01-27T04:29:26;2.08;;;0.70;;
58139;SDS011;53185;47.378;18.922;2024-01-27T04:31:53;3.85;;;1.25;;
58139;SDS011;53185;47.378;18.922;2024-01-27T04:34:21;0.32;;;0.32;;
58139;SDS011;53185;47.378;18.922;2024-01-27T04:36:48;3.92;;;1.12;;
58139;SDS011;53185;47.378;18.922;2024-01-27T04:39:16;6.30;;;1.33;;
58139;SDS011;53185;47.378;18.922;2024-01-27T04:41:43;2.83;;;0.82;;
58139;SDS011;53185;47.378;18.922;2024-01-27T04:44:11;2.90;;;1.00;;
58139;SDS011;53185;47.378;18.922;2024-01-27T04:46:38;4.40;;;1.17;;
58139;SDS011;53185;47.378;18.922;2024-01-27T04:49:06;3.03;;;1.00;;
58139;SDS011;53185;47.378;18.922;2024-01-27T04:51:34;4.97;;;1.08;;
58139;SDS011;53185;47.378;18.922;2024-01-27T04:54:09;2.08;;;0.77;;
58139;SDS011;53185;47.378;18.922;2024-01-27T04:56:37;1.33;;;0.50;;
58139;SDS011;53185;47.378;18.922;2024-01-27T04:59:04;2.60;;;1.05;;
58139;SDS011;53185;47.378;18.922;2024-01-27T05:01:32;4.25;;;0.82;;
58139;SDS011;53185;47.378;18.922;2024-01-27T05:04:00;4.32;;;0.90;;
58139;SDS011;53185;47.378;18.922;2024-01-27T05:06:27;1.77;;;1.02;;
58139;SDS011;53185;47.378;18.922;2024-01-27T05:08:55;2.30;;;0.68;;
58139;SDS011;53185;47.378;18.922;2024-01-27T05:11:29;2.08;;;0.98;;
58139;SDS011;53185;47.378;18.922;2024-01-27T05:13:57;3.35;;;1.55;;
58139;SDS011;53185;47.378;18.922;2024-01-27T05:16:27;2.58;;;0.70;;
58139;SDS011;53185;47.378;18.922;2024-01-27T05:18:55;2.03;;;0.80;;
58139;SDS011;53185;47.378;18.922;2024-01-27T05:21:24;1.90;;;1.00;;
58139;SDS011;53185;47.378;18.922;2024-01-27T05:23:52;5.93;;;1.65;;
58139;SDS011;53185;47.378;18.922;2024-01-27T05:26:20;3.03;;;1.33;;
58139;SDS011;53185;47.378;18.922;2024-01-27T05:28:48;1.02;;;0.82;;
58139;SDS011;53185;47.378;18.922;2024-01-27T05:31:16;2.95;;;1.00;;
58139;SDS011;53185;47.378;18.922;2024-01-27T05:33:43;2.15;;;0.80;;
58139;SDS011;53185;47.378;18.922;2024-01-27T05:36:14;5.03;;;1.35;;
58139;SDS011;53185;47.378;18.922;2024-01-27T05:38:41;4.03;;;1.00;;
58139;SDS011;53185;47.378;18.922;2024-01-27T05:41:09;3.47;;;0.57;;
58139;SDS011;53185;47.378;18.922;2024-01-27T05:43:37;2.03;;;0.98;;
58139;SDS011;53185;47.378;18.922;2024-01-27T05:46:04;1.40;;;0.62;;
58139;SDS011;53185;47.378;18.922;2024-01-27T05:48:32;1.92;;;0.77;;
58139;SDS011;53185;47.378;18.922;2024-01-27T05:51:01;4.30;;;1.27;;
58139;SDS011;53185;47.378;18.922;2024-01-27T05:53:30;4.47;;;1.25;;
58139;SDS011;53185;47.378;18.922;2024-01-27T05:55:57;3.55;;;0.90;;
58139;SDS011;53185;47.378;18.922;2024-01-27T05:58:24;5.75;;;1.33;;
58139;SDS011;53185;47.378;18.922;2024-01-27T06:00:59;3.10;;;1.15;;
58139;SDS011;53185;47.378;18.922;2024-01-27T06:03:27;1.85;;;0.68;;
58139;SDS011;53185;47.378;18.922;2024-01-27T06:05:54;3.75;;;0.85;;
58139;SDS011;53185;47.378;18.922;2024-01-27T06:08:22;6.80;;;0.70;;
58139;SDS011;53185;47.378;18.922;2024-01-27T06:10:49;1.62;;;0.80;;
58139;SDS011;53185;47.378;18.922;2024-01-27T06:13:16;2.83;;;1.30;;
58139;SDS011;53185;47.378;18.922;2024-01-27T06:15:43;2.95;;;1.05;;
58139;SDS011;53185;47.378;18.922;2024-01-27T06:18:11;4.95;;;1.00;;
58139;SDS011;53185;47.378;18.922;2024-01-27T06:20:40;2.33;;;1.15;;
58139;SDS011;53185;47.378;18.922;2024-01-27T06:23:08;7.60;;;1.87;;
58139;SDS011;53185;47.378;18.922;2024-01-27T06:25:35;7.32;;;0.93;;
58139;SDS011;53185;47.378;18.922;2024-01-27T06:28:03;1.50;;;1.00;;
58139;SDS011;53185;47.378;18.922;2024-01-27T06:30:30;4.15;;;1.02;;
58139;SDS011;53185;47.378;18.922;2024-01-27T06:32:58;1.02;;;0.85;;
58139;SDS011;53185;47.378;18.922;2024-01-27T06:35:25;7.62;;;1.27;;
58139;SDS011;53185;47.378;18.922;2024-01-27T06:37:54;2.70;;;1.52;;
58139;SDS011;53185;47.378;18.922;2024-01-27T06:40:22;1.35;;;0.50;;
58139;SDS011;53185;47.378;18.922;2024-01-27T06:42:52;4.62;;;1.20;;
58139;SDS011;53185;47.378;18.922;2024-01-27T06:45:19;6.05;;;1.20;;
58139;SDS011;53185;47.378;18.922;2024-01-27T06:47:46;1.37;;;0.70;;
58139;SDS011;53185;47.378;18.922;2024-01-27T06:50:13;2.67;;;1.10;;
58139;SDS011;53185;47.378;18.922;2024-01-27T06:52:42;2.10;;;0.88;;
58139;SDS011;53185;47.378;18.922;2024-01-27T06:55:10;5.22;;;1.08;;
58139;SDS011;53185;47.378;18.922;2024-01-27T06:57:38;3.28;;;1.20;;
58139;SDS011;53185;47.378;18.922;2024-01-27T07:00:07;2.35;;;0.93;;
58139;SDS011;53185;47.378;18.922;2024-01-27T07:02:35;5.10;;;0.80;;
58139;SDS011;53185;47.378;18.922;2024-01-27T07:05:05;1.87;;;1.20;;
58139;SDS011;53185;47.378;18.922;2024-01-27T07:10:07;2.15;;;0.60;;
58139;SDS011;53185;47.378;18.922;2024-01-27T07:12:37;3.83;;;1.48;;
58139;SDS011;53185;47.378;18.922;2024-01-27T07:15:05;7.55;;;1.42;;
58139;SDS011;53185;47.378;18.922;2024-01-27T07:17:32;8.27;;;1.70;;
58139;SDS011;53185;47.378;18.922;2024-01-27T07:20:01;3.62;;;1.33;;
58139;SDS011;53185;47.378;18.922;2024-01-27T07:22:29;2.75;;;0.95;;
58139;SDS011;53185;47.378;18.922;2024-01-27T07:25:03;2.83;;;1.73;;
58139;SDS011;53185;47.378;18.922;2024-01-27T07:27:31;1.67;;;0.52;;
58139;SDS011;53185;47.378;18.922;2024-01-27T07:30:00;1.87;;;0.73;;
58139;SDS011;53185;47.378;18.922;2024-01-27T07:32:27;3.28;;;0.88;;
58139;SDS011;53185;47.378;18.922;2024-01-27T07:34:55;3.70;;;0.80;;
58139;SDS011;53185;47.378;18.922;2024-01-27T07:37:22;4.45;;;2.10;;
58139;SDS011;53185;47.378;18.922;2024-01-27T07:39:49;1.35;;;0.50;;
58139;SDS011;53185;47.378;18.922;2024-01-27T07:42:17;2.05;;;1.00;;
58139;SDS011;53185;47.378;18.922;2024-01-27T07:44:44;2.78;;;1.52;;
58139;SDS011;53185;47.378;18.922;2024-01-27T07:47:11;4.60;;;1.00;;
58139;SDS011;53185;47.378;18.922;2024-01-27T07:49:39;3.08;;;1.10;;
58139;SDS011;53185;47.378;18.922;2024-01-27T07:52:08;5.75;;;1.58;;
58139;SDS011;53185;47.378;18.922;2024-01-27T07:54:35;5.30;;;1.45;;
58139;SDS011;53185;47.378;18.922;2024-01-27T07:57:07;2.95;;;0.90;;
58139;SDS011;53185;47.378;18.922;2024-01-27T07:59:34;2.72;;;1.15;;
58139;SDS011;53185;47.378;18.922;2024-01-27T08:02:01;6.55;;;1.92;;
58139;SDS011;53185;47.378;18.922;2024-01-27T08:04:30;3.20;;;1.37;;
58139;SDS011;53185;47.378;18.922;2024-01-27T08:06:57;2.45;;;1.30;;
58139;SDS011;53185;47.378;18.922;2024-01-27T08:09:25;2.35;;;0.85;;
58139;SDS011;53185;47.378;18.922;2024-01-27T08:11:52;1.92;;;0.98;;
58139;SDS011;53185;47.378;18.922;2024-01-27T08:14:20;2.40;;;1.10;;
58139;SDS011;53185;47.378;18.922;2024-01-27T08:16:48;2.00;;;0.70;;
58139;SDS011;53185;47.378;18.922;2024-01-27T08:19:17;3.30;;;1.33;;
58139;SDS011;53185;47.378;18.922;2024-01-27T08:21:48;4.03;;;1.00;;
58139;SDS011;53185;47.378;18.922;2024-01-27T08:24:16;8.35;;;2.55;;
58139;SDS011;53185;47.378;18.922;2024-01-27T08:26:43;6.90;;;3.30;;
58139;SDS011;53185;47.378;18.922;2024-01-27T08:29:11;4.82;;;1.87;;
58139;SDS011;53185;47.378;18.922;2024-01-27T08:31:39;4.18;;;1.20;;
58139;SDS011;53185;47.378;18.922;2024-01-27T08:34:06;6.43;;;1.50;;
58139;SDS011;53185;47.378;18.922;2024-01-27T08:36:34;1.62;;;0.85;;
58139;SDS011;53185;47.378;18.922;2024-01-27T08:39:02;1.98;;;1.05;;
58139;SDS011;53185;47.378;18.922;2024-01-27T08:41:30;9.75;;;1.37;;
58139;SDS011;53185;47.378;18.922;2024-01-27T08:43:57;4.43;;;0.93;;
58139;SDS011;53185;47.378;18.922;2024-01-27T08:46:24;3.33;;;1.20;;
58139;SDS011;53185;47.378;18.922;2024-01-27T08:48:51;2.03;;;0.90;;
58139;SDS011;53185;47.378;18.922;2024-01-27T08:51:19;3.65;;;1.10;;
58139;SDS011;53185;47.378;18.922;2024-01-27T08:53:47;2.67;;;1.05;;
58139;SDS011;53185;47.378;18.922;2024-01-27T08:56:17;2.25;;;1.40;;
58139;SDS011;53185;47.378;18.922;2024-01-27T08:58:52;1.90;;;1.02;;
58139;SDS011;53185;47.378;18.922;2024-01-27T09:01:20;8.10;;;1.40;;
58139;SDS011;53185;47.378;18.922;2024-01-27T09:03:50;3.37;;;1.17;;
58139;SDS011;53185;47.378;18.922;2024-01-27T09:06:18;5.20;;;1.52;;
58139;SDS011;53185;47.378;18.922;2024-01-27T09:08:47;5.97;;;2.95;;
58139;SDS011;53185;47.378;18.922;2024-01-27T09:11:15;4.57;;;2.00;;
58139;SDS011;53185;47.378;18.922;2024-01-27T09:13:43;8.55;;;2.15;;
58139;SDS011;53185;47.378;18.922;2024-01-27T09:19:43;4.75;;;1.70;;
58139;SDS011;53185;47.378;18.922;2024-01-27T09:22:11;3.45;;;1.60;;
58139;SDS011;53185;47.378;18.922;2024-01-27T09:24:39;3.47;;;1.60;;
58139;SDS011;53185;47.378;18.922;2024-01-27T09:27:07;4.15;;;1.60;;
58139;SDS011;53185;47.378;18.922;2024-01-27T09:29:39;2.58;;;1.70;;
58139;SDS011;53185;47.378;18.922;2024-01-27T09:32:12;1.48;;;0.73;;
58139;SDS011;53185;47.378;18.922;2024-01-27T09:34:40;3.25;;;1.30;;
58139;SDS011;53185;47.378;18.922;2024-01-27T09:37:08;8.52;;;3.22;;
58139;SDS011;53185;47.378;18.922;2024-01-27T09:39:35;9.40;;;3.17;;
58139;SDS011;53185;47.378;18.922;2024-01-27T09:42:04;3.95;;;1.83;;
58139;SDS011;53185;47.378;18.922;2024-01-27T09:44:34;6.20;;;2.47;;
58139;SDS011;53185;47.378;18.922;2024-01-27T09:47:02;4.90;;;2.25;;
58139;SDS011;53185;47.378;18.922;2024-01-27T09:49:31;10.95;;;1.73;;
58139;SDS011;53185;47.378;18.922;2024-01-27T09:52:03;16.00;;;1.95;;
58139;SDS011;53185;47.378;18.922;2024-01-27T09:58:04;2.42;;;1.00;;
58139;SDS011;53185;47.378;18.922;2024-01-27T10:00:33;8.35;;;1.90;;
58139;SDS011;53185;47.378;18.922;2024-01-27T10:03:04;18.05;;;1.67;;
58139;SDS011;53185;47.378;18.922;2024-01-27T10:05:33;2.60;;;1.10;;
58139;SDS011;53185;47.378;18.922;2024-01-27T10:08:01;7.78;;;1.80;;
58139;SDS011;53185;47.378;18.922;2024-01-27T10:10:28;2.05;;;0.88;;
58139;SDS011;53185;47.378;18.922;2024-01-27T10:12:56;4.68;;;1.20;;
58139;SDS011;53185;47.378;18.922;2024-01-27T10:15:27;5.65;;;1.25;;
58139;SDS011;53185;47.378;18.922;2024-01-27T10:18:07;5.28;;;1.50;;
58139;SDS011;53185;47.378;18.922;2024-01-27T10:20:35;7.20;;;1.45;;
58139;SDS011;53185;47.378;18.922;2024-01-27T10:23:12;3.22;;;0.88;;
58139;SDS011;53185;47.378;18.922;2024-01-27T10:25:40;5.53;;;1.60;;
58139;SDS011;53185;47.378;18.922;2024-01-27T10:28:12;4.32;;;1.62;;
58139;SDS011;53185;47.378;18.922;2024-01-27T10:30:40;9.02;;;2.05;;
58139;SDS011;53185;47.378;18.922;2024-01-27T10:33:11;2.33;;;1.05;;
58139;SDS011;53185;47.378;18.922;2024-01-27T10:35:42;8.70;;;2.12;;
58139;SDS011;53185;47.378;18.922;2024-01-27T10:38:10;2.40;;;1.10;;
58139;SDS011;53185;47.378;18.922;2024-01-27T10:40:39;5.95;;;1.48;;
58139;SDS011;53185;47.378;18.922;2024-01-27T10:43:07;6.43;;;1.33;;
58139;SDS011;53185;47.378;18.922;2024-01-27T10:45:38;6.60;;;1.33;;
58139;SDS011;53185;47.378;18.922;2024-01-27T10:48:09;0.90;;;0.60;;
58139;SDS011;53185;47.378;18.922;2024-01-27T10:50:40;1.90;;;1.08;;
58139;SDS011;53185;47.378;18.922;2024-01-27T10:53:21;3.37;;;1.08;;
58139;SDS011;53185;47.378;18.922;2024-01-27T10:55:52;9.88;;;2.12;;
58139;SDS011;53185;47.378;18.922;2024-01-27T10:58:23;4.18;;;1.33;;
58139;SDS011;53185;47.378;18.922;2024-01-27T11:00:52;2.80;;;1.15;;
58139;SDS011;53185;47.378;18.922;2024-01-27T11:03:23;10.45;;;1.23;;
58139;SDS011;53185;47.378;18.922;2024-01-27T11:05:51;5.78;;;1.37;;
58139;SDS011;53185;47.378;18.922;2024-01-27T11:08:19;3.40;;;1.20;;
58139;SDS011;53185;47.378;18.922;2024-01-27T11:10:47;4.18;;;1.50;;
58139;SDS011;53185;47.378;18.922;2024-01-27T11:13:16;4.95;;;2.05;;
58139;SDS011;53185;47.378;18.922;2024-01-27T11:15:52;6.43;;;1.87;;
58139;SDS011;53185;47.378;18.922;2024-01-27T11:18:20;4.50;;;1.70;;
58139;SDS011;53185;47.378;18.922;2024-01-27T11:20:52;6.65;;;1.37;;
58139;SDS011;53185;47.378;18.922;2024-01-27T11:23:30;3.28;;;1.45;;
58139;SDS011;53185;47.378;18.922;2024-01-27T11:26:03;4.70;;;1.17;;
58139;SDS011;53185;47.378;18.922;2024-01-27T11:28:32;3.37;;;1.02;;
58139;SDS011;53185;47.378;18.922;2024-01-27T11:31:07;3.95;;;0.80;;
58139;SDS011;53185;47.378;18.922;2024-01-27T11:33:44;4.93;;;1.33;;
58139;SDS011;53185;47.378;18.922;2024-01-27T11:36:23;3.67;;;1.42;;
58139;SDS011;53185;47.378;18.922;2024-01-27T11:38:53;3.53;;;1.23;;
58139;SDS011;53185;47.378;18.922;2024-01-27T11:41:27;6.25;;;1.98;;
58139;SDS011;53185;47.378;18.922;2024-01-27T11:43:56;8.82;;;2.42;;
58139;SDS011;53185;47.378;18.922;2024-01-27T11:46:26;4.43;;;1.58;;
58139;SDS011;53185;47.378;18.922;2024-01-27T11:48:53;1.90;;;1.20;;
58139;SDS011;53185;47.378;18.922;2024-01-27T11:51:21;4.55;;;0.77;;
58139;SDS011;53185;47.378;18.922;2024-01-27T11:53:51;3.55;;;1.20;;
58139;SDS011;53185;47.378;18.922;2024-01-27T11:56:19;3.20;;;1.52;;
58139;SDS011;53185;47.378;18.922;2024-01-27T11:58:49;6.90;;;0.95;;
58139;SDS011;53185;47.378;18.922;2024-01-27T12:01:18;3.35;;;1.48;;
58139;SDS011;53185;47.378;18.922;2024-01-27T12:03:47;7.30;;;1.45;;
58139;SDS011;53185;47.378;18.922;2024-01-27T12:06:15;5.10;;;1.50;;
58139;SDS011;53185;47.378;18.922;2024-01-27T12:08:44;4.03;;;1.20;;
58139;SDS011;53185;47.378;18.922;2024-01-27T12:11:17;3.72;;;1.50;;
58139;SDS011;53185;47.378;18.922;2024-01-27T12:13:51;7.32;;;2.00;;
58139;SDS011;53185;47.378;18.922;2024-01-27T12:16:21;8.18;;;1.60;;
58139;SDS011;53185;47.378;18.922;2024-01-27T12:18:51;7.55;;;1.80;;
58139;SDS011;53185;47.378;18.922;2024-01-27T12:21:21;4.90;;;1.80;;
58139;SDS011;53185;47.378;18.922;2024-01-27T12:23:52;6.35;;;1.60;;
58139;SDS011;53185;47.378;18.922;2024-01-27T12:26:21;5.57;;;1.60;;
58139;SDS011;53185;47.378;18.922;2024-01-27T12:28:49;8.20;;;1.60;;
58139;SDS011;53185;47.378;18.922;2024-01-27T12:31:16;6.50;;;1.23;;
58139;SDS011;53185;47.378;18.922;2024-01-27T12:33:49;7.50;;;1.50;;
58139;SDS011;53185;47.378;18.922;2024-01-27T12:36:32;3.25;;;1.10;;
58139;SDS011;53185;47.378;18.922;2024-01-27T12:39:00;2.92;;;1.25;;
58139;SDS011;53185;47.378;18.922;2024-01-27T12:41:28;4.93;;;1.70;;
58139;SDS011;53185;47.378;18.922;2024-01-27T12:43:56;13.10;;;3.10;;
58139;SDS011;53185;47.378;18.922;2024-01-27T12:46:26;9.25;;;2.20;;
58139;SDS011;53185;47.378;18.922;2024-01-27T12:48:56;6.68;;;1.90;;
58139;SDS011;53185;47.378;18.922;2024-01-27T12:51:25;3.12;;;1.20;;
58139;SDS011;53185;47.378;18.922;2024-01-27T12:53:52;2.87;;;1.23;;
58139;SDS011;53185;47.378;18.922;2024-01-27T12:56:20;15.02;;;1.42;;
58139;SDS011;53185;47.378;18.922;2024-01-27T12:58:48;7.82;;;1.35;;
58139;SDS011;53185;47.378;18.922;2024-01-27T13:01:22;4.25;;;1.35;;
58139;SDS011;53185;47.378;18.922;2024-01-27T13:03:50;3.95;;;1.15;;
58139;SDS011;53185;47.378;18.922;2024-01-27T13:06:17;3.65;;;1.05;;
58139;SDS011;53185;47.378;18.922;2024-01-27T13:08:46;8.25;;;1.87;;
58139;SDS011;53185;47.378;18.922;2024-01-27T13:11:16;6.75;;;1.40;;
58139;SDS011;53185;47.378;18.922;2024-01-27T13:13:43;1.48;;;0.90;;
58139;SDS011;53185;47.378;18.922;2024-01-27T13:16:16;6.05;;;1.12;;
58139;SDS011;53185;47.378;18.922;2024-01-27T13:18:43;4.47;;;1.35;;
58139;SDS011;53185;47.378;18.922;2024-01-27T13:21:15;6.85;;;1.60;;
58139;SDS011;53185;47.378;18.922;2024-01-27T13:23:43;11.57;;;1.73;;
58139;SDS011;53185;47.378;18.922;2024-01-27T13:26:10;4.40;;;2.05;;
58139;SDS011;53185;47.378;18.922;2024-01-27T13:28:45;4.82;;;1.83;;
58139;SDS011;53185;47.378;18.922;2024-01-27T13:31:16;5.70;;;1.50;;
58139;SDS011;53185;47.378;18.922;2024-01-27T13:33:47;2.70;;;1.05;;
58139;SDS011;53185;47.378;18.922;2024-01-27T13:36:16;7.93;;;2.42;;
58139;SDS011;53185;47.378;18.922;2024-01-27T13:38:46;8.82;;;1.48;;
58139;SDS011;53185;47.378;18.922;2024-01-27T13:41:14;3.90;;;1.35;;
58139;SDS011;53185;47.378;18.922;2024-01-27T13:43:42;5.82;;;1.33;;
58139;SDS011;53185;47.378;18.922;2024-01-27T13:46:09;5.35;;;1.67;;
58139;SDS011;53185;47.378;18.922;2024-01-27T13:48:39;9.52;;;1.48;;
58139;SDS011;53185;47.378;18.922;2024-01-27T13:51:06;3.20;;;1.52;;
58139;SDS011;53185;47.378;18.922;2024-01-27T13:53:34;3.95;;;1.30;;
58139;SDS011;53185;47.378;18.922;2024-01-27T13:56:18;6.87;;;3.05;;
58139;SDS011;53185;47.378;18.922;2024-01-27T13:58:46;5.80;;;1.60;;
58139;SDS011;53185;47.378;18.922;2024-01-27T14:01:14;4.65;;;1.90;;
58139;SDS011;53185;47.378;18.922;2024-01-27T14:03:41;2.85;;;1.40;;
58139;SDS011;53185;47.378;18.922;2024-01-27T14:06:09;2.08;;;1.35;;
58139;SDS011;53185;47.378;18.922;2024-01-27T14:11:08;4.57;;;1.67;;
58139;SDS011;53185;47.378;18.922;2024-01-27T14:13:38;19.20;;;2.65;;
58139;SDS011;53185;47.378;18.922;2024-01-27T14:16:08;8.88;;;1.35;;
58139;SDS011;53185;47.378;18.922;2024-01-27T14:18:36;7.47;;;1.75;;
58139;SDS011;53185;47.378;18.922;2024-01-27T14:24:37;4.50;;;1.33;;
58139;SDS011;53185;47.378;18.922;2024-01-27T14:27:08;5.78;;;1.50;;
58139;SDS011;53185;47.378;18.922;2024-01-27T14:33:07;3.33;;;1.15;;
58139;SDS011;53185;47.378;18.922;2024-01-27T14:35:36;11.90;;;2.17;;
58139;SDS011;53185;47.378;18.922;2024-01-27T14:38:05;6.07;;;1.73;;
58139;SDS011;53185;47.378;18.922;2024-01-27T14:40:36;7.70;;;1.87;;
58139;SDS011;53185;47.378;18.922;2024-01-27T14:49:18;6.53;;;1.62;;
58139;SDS011;53185;47.378;18.922;2024-01-27T14:51:52;5.30;;;1.58;;
58139;SDS011;53185;47.378;18.922;2024-01-27T14:54:20;2.75;;;1.30;;
58139;SDS011;53185;47.378;18.922;2024-01-27T14:56:49;4.80;;;1.48;;
58139;SDS011;53185;47.378;18.922;2024-01-27T14:59:16;1.33;;;0.77;;
58139;SDS011;53185;47.378;18.922;2024-01-27T15:01:48;5.40;;;1.27;;
58139;SDS011;53185;47.378;18.922;2024-01-27T15:04:18;1.92;;;1.02;;
58139;SDS011;53185;47.378;18.922;2024-01-27T15:06:50;6.80;;;1.80;;
58139;SDS011;53185;47.378;18.922;2024-01-27T15:09:18;3.58;;;1.48;;